Time;durP1;ratioP1;P1;durP2;ratioP2;P2;SDS_P1;SDS_P2;PMS_P1;PMS_P2;Temp;Humidity;BMP_temperature;BMP_pressure;BME280_temperature;BME280_humidity;BME280_pressure;Samples;Min_cycle;Max_cycle;Signal;HPM_P1;HPM_P2
2023/12/26 00:01:57;;;;;;;0.52;0.20;;;15.10;73.30;16.50;100302.00;;;;5081783;28;20201;-79
2023/12/26 00:04:24;;;;;;;0.70;0.30;;;15.20;73.30;16.50;100295.00;;;;5073243;28;20230;-79
2023/12/26 00:06:51;;;;;;;0.75;0.20;;;15.10;73.30;16.50;100299.00;;;;5070155;28;20195;-78
2023/12/26 00:09:18;;;;;;;0.95;0.20;;;15.10;73.30;16.50;100297.00;;;;5072113;28;20238;-78
2023/12/26 00:11:47;;;;;;;0.57;0.20;;;15.10;73.30;16.50;100297.00;;;;5071255;28;20290;-79
2023/12/26 00:14:16;;;;;;;1.88;0.45;;;15.10;73.30;16.50;100281.00;;;;5070363;28;20202;-78
2023/12/26 00:16:44;;;;;;;1.60;0.40;;;15.10;73.30;16.50;100284.00;;;;5069805;28;20201;-79
2023/12/26 00:19:11;;;;;;;0.88;0.28;;;15.10;73.30;16.50;100296.00;;;;5070452;28;20199;-79
2023/12/26 00:21:39;;;;;;;4.47;0.65;;;15.10;74.00;16.50;100294.00;;;;5070134;28;20667;-79
2023/12/26 00:24:07;;;;;;;0.65;0.30;;;15.10;73.30;16.50;100302.00;;;;5070149;28;20206;-78
2023/12/26 00:26:37;;;;;;;0.52;0.10;;;15.10;73.30;16.50;100296.00;;;;5072136;28;20203;-78
2023/12/26 00:29:06;;;;;;;1.58;0.25;;;15.20;73.30;16.50;100289.00;;;;5069532;28;20206;-79
2023/12/26 00:31:33;;;;;;;1.05;0.30;;;15.10;73.30;16.50;100287.00;;;;5079998;28;20699;-79
2023/12/26 00:33:59;;;;;;;3.38;0.40;;;15.10;73.30;16.50;100273.00;;;;5083313;28;20205;-79
2023/12/26 00:36:26;;;;;;;0.68;0.22;;;15.10;73.30;16.50;100283.00;;;;5071967;28;20199;-79
2023/12/26 00:38:53;;;;;;;0.45;0.10;;;15.20;73.40;16.50;100284.00;;;;5069336;28;20230;-78
2023/12/26 00:41:20;;;;;;;0.47;0.20;;;15.10;73.40;16.50;100284.00;;;;5070841;28;20195;-79
2023/12/26 00:43:47;;;;;;;2.83;0.30;;;15.10;73.40;16.50;100286.00;;;;5073426;28;20209;-79
2023/12/26 00:46:15;;;;;;;0.90;0.20;;;15.10;73.40;16.50;100292.00;;;;5073423;28;20647;-79
2023/12/26 00:48:42;;;;;;;0.70;0.20;;;15.20;73.40;16.50;100287.00;;;;5076000;28;20672;-78
2023/12/26 00:51:09;;;;;;;0.75;0.25;;;15.10;73.40;16.50;100288.00;;;;5069608;28;20223;-78
2023/12/26 00:53:36;;;;;;;0.60;0.20;;;15.20;73.40;16.60;100288.00;;;;5069293;28;20210;-79
2023/12/26 00:56:03;;;;;;;1.45;0.40;;;15.10;74.00;16.60;100288.00;;;;5068278;28;20238;-78
2023/12/26 00:58:30;;;;;;;0.60;0.30;;;15.10;73.30;16.50;100276.00;;;;5071955;28;20563;-79
2023/12/26 01:00:57;;;;;;;0.70;0.30;;;15.10;73.30;16.50;100283.00;;;;5075700;28;20674;-79
2023/12/26 01:03:25;;;;;;;2.78;0.20;;;15.10;73.40;16.50;100280.00;;;;5081144;28;20553;-78
2023/12/26 01:05:53;;;;;;;1.85;0.40;;;15.10;73.30;16.50;100290.00;;;;5069557;28;20712;-78
2023/12/26 01:08:20;;;;;;;0.77;0.20;;;15.10;73.30;16.50;100298.00;;;;5069918;28;20214;-78
2023/12/26 01:10:47;;;;;;;1.52;0.35;;;15.10;73.30;16.50;100290.00;;;;5068537;28;20246;-79
2023/12/26 01:13:14;;;;;;;1.00;0.30;;;15.10;73.40;16.50;100294.00;;;;5075552;28;20209;-79
2023/12/26 01:15:41;;;;;;;0.20;0.10;;;15.20;73.30;16.50;100289.00;;;;5069533;28;20225;-78
2023/12/26 01:18:09;;;;;;;1.77;0.40;;;15.10;73.20;16.40;100292.00;;;;5076008;28;20198;-79
2023/12/26 01:20:37;;;;;;;1.33;0.45;;;15.10;73.20;16.40;100296.00;;;;5068379;28;20257;-78
2023/12/26 01:23:04;;;;;;;0.88;0.30;;;15.10;73.20;16.40;100306.00;;;;5069241;28;20207;-78
2023/12/26 01:25:31;;;;;;;2.17;0.50;;;15.10;73.20;16.40;100312.00;;;;5069572;28;20191;-78
2023/12/26 01:27:58;;;;;;;1.98;0.22;;;15.10;73.30;16.40;100315.00;;;;5068727;28;20199;-78
2023/12/26 01:30:25;;;;;;;1.20;0.45;;;15.00;73.20;16.40;100314.00;;;;5071954;28;20596;-78
2023/12/26 01:32:52;;;;;;;1.80;0.52;;;15.00;73.30;16.30;100311.00;;;;5079894;28;20191;-78
2023/12/26 01:35:19;;;;;;;1.95;0.32;;;15.00;73.20;16.30;100322.00;;;;5067598;28;20207;-79
2023/12/26 01:37:47;;;;;;;3.15;0.70;;;15.00;73.30;16.30;100330.00;;;;5074728;28;20190;-78
2023/12/26 01:40:15;;;;;;;1.30;0.52;;;15.00;73.30;16.30;100326.00;;;;5072604;28;20195;-78
2023/12/26 01:42:45;;;;;;;1.77;0.35;;;14.90;73.30;16.30;100324.00;;;;5068597;28;20226;-79
2023/12/26 01:45:12;;;;;;;0.75;0.40;;;15.00;73.40;16.30;100322.00;;;;5069156;28;20207;-78
2023/12/26 01:47:39;;;;;;;3.60;0.77;;;15.00;73.40;16.40;100321.00;;;;5070685;28;20209;-78
2023/12/26 01:50:08;;;;;;;0.70;0.35;;;15.00;73.50;16.30;100323.00;;;;5068855;28;20601;-78
2023/12/26 01:52:38;;;;;;;0.52;0.22;;;15.00;73.40;16.40;100321.00;;;;5079078;28;20206;-79
2023/12/26 01:55:08;;;;;;;1.10;0.30;;;15.00;73.50;16.30;100330.00;;;;5082157;28;20195;-78
2023/12/26 01:57:38;;;;;;;2.92;0.40;;;14.90;73.40;16.40;100315.00;;;;5068412;28;20572;-78
2023/12/26 02:00:07;;;;;;;1.00;0.38;;;14.90;74.10;16.30;100325.00;;;;5073103;28;20205;-79
2023/12/26 02:02:34;;;;;;;2.53;0.57;;;14.90;73.40;16.40;100334.00;;;;5069017;28;20205;-78
2023/12/26 02:05:02;;;;;;;1.58;0.43;;;14.90;73.50;16.40;100332.00;;;;5072304;28;20222;-78
2023/12/26 02:07:29;;;;;;;1.95;0.50;;;15.00;73.60;16.40;100332.00;;;;5079075;28;20283;-79
2023/12/26 02:09:56;;;;;;;3.30;0.77;;;15.00;73.60;16.40;100326.00;;;;5085736;28;20222;-78
2023/12/26 02:12:25;;;;;;;1.73;0.70;;;15.00;73.60;16.40;100341.00;;;;5071162;28;20198;-79
2023/12/26 02:14:52;;;;;;;1.20;0.60;;;15.00;73.60;16.50;100346.00;;;;5070203;28;20191;-78
2023/12/26 02:17:25;;;;;;;1.98;0.52;;;15.00;73.60;16.40;100344.00;;;;5067111;28;20195;-78
2023/12/26 02:19:52;;;;;;;3.30;0.73;;;15.00;73.60;16.50;100370.00;;;;5080707;28;20697;-79
2023/12/26 02:22:19;;;;;;;2.65;1.02;;;15.00;73.60;16.50;100363.00;;;;5070890;28;20209;-78
2023/12/26 02:24:48;;;;;;;2.40;0.40;;;15.00;73.50;16.50;100365.00;;;;5068462;28;20195;-78
2023/12/26 02:27:19;;;;;;;4.65;0.75;;;15.00;73.50;16.50;100366.00;;;;5076707;28;20210;-79
2023/12/26 02:29:51;;;;;;;2.22;0.40;;;15.10;73.60;16.50;100381.00;;;;5070824;28;20187;-78
2023/12/26 02:32:20;;;;;;;3.72;0.57;;;15.10;73.60;16.50;100382.00;;;;5066479;28;20203;-78
2023/12/26 02:34:50;;;;;;;4.78;0.65;;;15.10;73.80;16.50;100382.00;;;;5067512;28;20200;-79
2023/12/26 02:37:17;;;;;;;6.47;1.25;;;15.10;73.50;16.50;100380.00;;;;5067229;28;20657;-78
2023/12/26 02:39:44;;;;;;;2.22;0.45;;;15.10;73.40;16.50;100388.00;;;;5079360;28;20209;-78
2023/12/26 02:42:14;;;;;;;3.33;0.90;;;15.10;73.30;16.50;100395.00;;;;5071438;28;20240;-78
2023/12/26 02:44:41;;;;;;;4.63;0.85;;;15.10;73.20;16.50;100397.00;;;;5067139;28;20199;-79
2023/12/26 02:47:08;;;;;;;2.70;0.70;;;15.10;73.20;16.50;100414.00;;;;5072303;28;20194;-78
2023/12/26 02:49:35;;;;;;;10.05;0.90;;;15.10;73.10;16.50;100408.00;;;;5076725;28;20603;-78
2023/12/26 02:52:03;;;;;;;3.38;0.70;;;15.10;72.90;16.40;100404.00;;;;5073474;28;20778;-78
2023/12/26 02:54:30;;;;;;;4.57;0.82;;;15.10;72.90;16.40;100418.00;;;;5067994;28;20708;-78
2023/12/26 02:56:57;;;;;;;2.95;0.65;;;15.10;73.50;16.40;100421.00;;;;5067569;28;20206;-78
2023/12/26 02:59:25;;;;;;;4.43;1.13;;;15.00;72.70;16.40;100416.00;;;;5068738;28;20195;-79
2023/12/26 03:01:52;;;;;;;2.45;0.50;;;15.10;72.60;16.40;100405.00;;;;5074194;28;20203;-78
2023/12/26 03:04:19;;;;;;;1.75;0.57;;;15.10;72.60;16.30;100417.00;;;;5067195;28;20214;-79
2023/12/26 03:06:46;;;;;;;4.32;1.23;;;15.00;72.50;16.30;100420.00;;;;5067309;28;20208;-78
2023/12/26 03:09:13;;;;;;;3.90;0.80;;;15.00;72.40;16.30;100433.00;;;;5067186;28;20202;-79
2023/12/26 03:11:40;;;;;;;3.47;0.98;;;15.00;72.30;16.30;100436.00;;;;5066918;28;20225;-79
2023/12/26 03:14:07;;;;;;;1.08;0.30;;;14.90;72.20;16.30;100436.00;;;;5066377;28;20199;-78
2023/12/26 03:16:35;;;;;;;1.88;0.40;;;14.90;72.20;16.20;100441.00;;;;5068217;28;20206;-78
2023/12/26 03:19:02;;;;;;;3.55;0.60;;;14.90;72.20;16.20;100430.00;;;;5069854;28;20579;-78
2023/12/26 03:21:29;;;;;;;2.40;0.47;;;14.90;72.20;16.20;100432.00;;;;5071643;28;20203;-79
2023/12/26 03:23:56;;;;;;;2.78;0.55;;;14.90;72.20;16.20;100446.00;;;;5071324;28;20224;-79
2023/12/26 03:26:23;;;;;;;1.55;0.40;;;14.90;72.30;16.20;100436.00;;;;5070762;28;20195;-78
2023/12/26 03:28:50;;;;;;;2.05;0.45;;;14.90;72.20;16.20;100450.00;;;;5085029;28;20664;-79
2023/12/26 03:31:17;;;;;;;2.65;0.60;;;14.80;72.10;16.20;100454.00;;;;5091699;28;20218;-78
2023/12/26 03:33:45;;;;;;;3.35;0.80;;;14.80;72.10;16.20;100471.00;;;;5076054;28;20206;-78
2023/12/26 03:36:12;;;;;;;2.72;0.70;;;14.80;72.00;16.20;100464.00;;;;5091309;28;20240;-78
2023/12/26 03:38:39;;;;;;;6.47;1.48;;;14.80;71.90;16.10;100471.00;;;;5090169;28;20202;-79
2023/12/26 03:41:06;;;;;;;3.00;0.40;;;14.80;71.90;16.10;100467.00;;;;5079039;28;20200;-78
2023/12/26 03:43:33;;;;;;;3.22;0.80;;;14.70;71.70;16.10;100478.00;;;;5090544;28;20202;-77
2023/12/26 03:46:00;;;;;;;3.45;0.98;;;14.70;71.70;16.00;100482.00;;;;5075256;28;20217;-78
2023/12/26 03:48:28;;;;;;;3.15;0.70;;;14.70;71.60;16.00;100463.00;;;;5090615;28;20194;-78
2023/12/26 03:50:56;;;;;;;1.67;0.60;;;14.70;71.40;15.90;100468.00;;;;5079006;28;20277;-78
2023/12/26 03:53:23;;;;;;;4.00;0.70;;;14.70;71.10;15.90;100484.00;;;;5085138;28;20569;-78
2023/12/26 03:55:51;;;;;;;2.97;0.68;;;14.60;71.00;15.80;100484.00;;;;5069863;28;20199;-78
2023/12/26 03:58:18;;;;;;;2.67;0.47;;;14.60;70.90;15.80;100484.00;;;;5070334;28;20211;-78
2023/12/26 04:00:45;;;;;;;2.58;0.40;;;14.60;70.80;15.80;100483.00;;;;5070461;28;20250;-78
2023/12/26 04:03:12;;;;;;;3.53;0.52;;;14.50;70.60;15.70;100493.00;;;;5070840;28;20696;-78
2023/12/26 04:05:39;;;;;;;4.47;0.45;;;14.50;70.10;15.60;100498.00;;;;5070966;28;20214;-78
2023/12/26 04:08:07;;;;;;;3.45;0.68;;;14.40;69.90;15.50;100499.00;;;;5077190;28;20203;-78
2023/12/26 04:10:34;;;;;;;2.25;0.35;;;14.40;69.90;15.50;100497.00;;;;5077108;28;20222;-78
2023/12/26 04:13:01;;;;;;;4.35;0.50;;;14.30;69.60;15.40;100513.00;;;;5076223;28;20202;-78
2023/12/26 04:15:28;;;;;;;2.58;0.60;;;14.30;69.60;15.40;100525.00;;;;5074554;28;20690;-78
2023/12/26 04:17:55;;;;;;;4.38;0.63;;;14.20;69.10;15.30;100517.00;;;;5084546;28;20203;-78
2023/12/26 04:20:22;;;;;;;1.33;0.40;;;14.10;69.30;15.30;100524.00;;;;5070140;28;20211;-78
2023/12/26 04:22:49;;;;;;;3.85;0.80;;;14.10;69.40;15.20;100531.00;;;;5070213;28;20207;-78
2023/12/26 04:25:18;;;;;;;2.78;0.80;;;14.00;69.40;15.20;100538.00;;;;5071343;28;20199;-78
2023/12/26 04:27:45;;;;;;;4.43;0.52;;;14.00;69.40;15.20;100527.00;;;;5069197;28;20577;-78
2023/12/26 04:30:13;;;;;;;3.90;0.65;;;13.90;69.40;15.20;100552.00;;;;5086604;28;20281;-78
2023/12/26 04:32:40;;;;;;;0.98;0.40;;;13.90;69.60;15.20;100537.00;;;;5084444;28;20192;-78
2023/12/26 04:35:07;;;;;;;2.38;0.52;;;13.90;69.70;15.10;100530.00;;;;5074929;28;20199;-78
2023/12/26 04:37:34;;;;;;;3.22;0.65;;;13.80;69.80;15.10;100540.00;;;;5072548;28;20199;-78
2023/12/26 04:40:01;;;;;;;2.22;0.52;;;13.80;69.90;15.20;100550.00;;;;5090587;28;20707;-78
2023/12/26 04:42:29;;;;;;;6.15;0.70;;;13.80;70.00;15.10;100549.00;;;;5080554;28;20230;-78
2023/12/26 04:44:56;;;;;;;5.63;1.48;;;13.80;69.90;15.10;100559.00;;;;5069895;28;20657;-78
2023/12/26 04:47:23;;;;;;;2.53;0.63;;;13.80;69.90;15.10;100574.00;;;;5073996;28;20195;-78
2023/12/26 04:49:50;;;;;;;2.53;0.65;;;13.70;69.80;15.00;100558.00;;;;5089171;28;20213;-78
2023/12/26 04:52:18;;;;;;;3.42;0.88;;;13.70;69.80;15.00;100560.00;;;;5090607;28;20229;-78
2023/12/26 04:54:45;;;;;;;2.72;0.50;;;13.70;69.70;15.00;100556.00;;;;5084290;28;20195;-78
2023/12/26 04:57:12;;;;;;;2.22;0.70;;;13.60;70.30;14.90;100580.00;;;;5070441;28;20567;-78
2023/12/26 04:59:40;;;;;;;2.55;0.52;;;13.60;70.30;14.90;100588.00;;;;5082328;28;20198;-78
2023/12/26 05:02:07;;;;;;;4.57;0.45;;;13.60;69.50;14.90;100599.00;;;;5090977;28;20586;-78
2023/12/26 05:04:34;;;;;;;3.63;0.45;;;13.60;69.60;14.90;100609.00;;;;5090174;28;20222;-78
2023/12/26 05:07:02;;;;;;;6.03;0.68;;;13.50;69.60;14.90;100609.00;;;;5082323;28;20202;-78
2023/12/26 05:09:29;;;;;;;3.90;0.82;;;13.50;69.50;14.90;100611.00;;;;5070866;28;20483;-78
2023/12/26 05:11:56;;;;;;;3.58;0.60;;;13.50;69.60;14.90;100623.00;;;;5070140;28;20601;-78
2023/12/26 05:14:23;;;;;;;2.20;0.57;;;13.50;69.60;14.80;100617.00;;;;5085850;28;20217;-78
2023/12/26 05:16:51;;;;;;;3.38;0.50;;;13.50;69.60;14.80;100619.00;;;;5081051;28;20206;-77
2023/12/26 05:19:18;;;;;;;5.18;0.60;;;13.50;69.60;14.80;100629.00;;;;5079064;28;20213;-78
2023/12/26 05:21:45;;;;;;;4.57;0.85;;;13.50;69.60;14.80;100629.00;;;;5071149;28;20199;-78
2023/12/26 05:24:12;;;;;;;5.20;0.70;;;13.40;69.10;14.80;100614.00;;;;5070083;28;20222;-78
2023/12/26 05:26:40;;;;;;;3.95;0.45;;;13.40;69.20;14.70;100619.00;;;;5069330;28;20209;-78
2023/12/26 05:29:07;;;;;;;4.55;0.80;;;13.40;69.00;14.70;100610.00;;;;5070806;28;20191;-78
2023/12/26 05:31:34;;;;;;;2.17;0.40;;;13.40;68.90;14.70;100608.00;;;;5070581;28;20222;-78
2023/12/26 05:34:08;;;;;;;3.08;0.70;;;13.30;68.70;14.60;100614.00;;;;5077309;28;20202;-78
2023/12/26 05:36:35;;;;;;;3.10;0.65;;;13.30;68.60;14.60;100625.00;;;;5085373;28;20190;-78
2023/12/26 05:39:02;;;;;;;4.72;0.95;;;13.20;68.40;14.60;100629.00;;;;5079265;28;20190;-78
2023/12/26 05:41:29;;;;;;;4.30;0.63;;;13.20;68.50;14.50;100639.00;;;;5089890;28;20691;-78
2023/12/26 05:43:56;;;;;;;3.10;0.70;;;13.20;68.20;14.40;100643.00;;;;5088631;28;20213;-78
2023/12/26 05:46:29;;;;;;;3.00;0.60;;;13.10;68.10;14.30;100652.00;;;;5090067;28;20693;-78
2023/12/26 05:48:55;;;;;;;4.60;1.08;;;13.10;68.10;14.30;100647.00;;;;5078662;28;20206;-78
2023/12/26 05:51:25;;;;;;;4.28;0.68;;;13.00;67.90;14.30;100661.00;;;;5069545;28;20222;-78
2023/12/26 05:53:52;;;;;;;5.78;0.63;;;13.00;67.90;14.20;100673.00;;;;5089652;28;20191;-78
2023/12/26 05:56:20;;;;;;;4.20;0.85;;;13.00;67.80;14.20;100675.00;;;;5088787;28;20229;-78
2023/12/26 05:58:47;;;;;;;6.47;1.08;;;12.90;67.80;14.20;100681.00;;;;5075619;28;20198;-78
2023/12/26 06:01:14;;;;;;;7.28;1.00;;;12.90;67.70;14.10;100691.00;;;;5068688;28;20203;-78
2023/12/26 06:03:41;;;;;;;6.95;0.70;;;12.80;67.80;14.10;100688.00;;;;5068778;28;20199;-77
2023/12/26 06:06:12;;;;;;;3.70;0.70;;;12.80;67.80;14.00;100696.00;;;;5069140;28;20226;-78
2023/12/26 06:08:40;;;;;;;4.70;0.70;;;12.80;67.80;14.00;100691.00;;;;5076785;28;20741;-78
2023/12/26 06:11:08;;;;;;;4.13;0.68;;;12.70;67.70;14.00;100698.00;;;;5078381;28;20226;-78
2023/12/26 06:13:35;;;;;;;1.50;0.68;;;12.70;67.70;14.00;100707.00;;;;5089627;28;20518;-78
2023/12/26 06:16:02;;;;;;;4.45;0.88;;;12.70;67.70;14.00;100711.00;;;;5073980;28;20225;-78
2023/12/26 06:18:29;;;;;;;5.13;0.98;;;12.60;67.70;13.90;100716.00;;;;5078557;28;20209;-78
2023/12/26 06:20:56;;;;;;;3.85;0.40;;;12.60;67.50;13.90;100727.00;;;;5087362;28;20224;-77
2023/12/26 06:23:23;;;;;;;1.92;0.47;;;12.60;67.70;13.90;100725.00;;;;5087837;28;20216;-77
2023/12/26 06:25:51;;;;;;;4.30;0.40;;;12.60;67.80;13.90;100737.00;;;;5069040;28;20198;-78
2023/12/26 06:28:18;;;;;;;3.90;0.77;;;12.60;67.70;13.90;100744.00;;;;5076836;28;20198;-78
2023/12/26 06:30:45;;;;;;;3.30;0.50;;;12.50;67.60;13.90;100747.00;;;;5073120;28;20203;-78
2023/12/26 06:33:12;;;;;;;5.90;1.13;;;12.50;67.70;13.90;100752.00;;;;5068576;28;20233;-78
2023/12/26 06:35:39;;;;;;;4.85;1.00;;;12.50;67.70;13.80;100755.00;;;;5071256;28;20688;-78
2023/12/26 06:38:12;;;;;;;8.63;0.98;;;12.50;67.60;13.80;100765.00;;;;5072810;28;20194;-77
2023/12/26 06:40:39;;;;;;;3.33;0.60;;;12.50;67.60;13.80;100769.00;;;;5085277;28;20226;-77
2023/12/26 06:43:07;;;;;;;8.73;1.70;;;12.40;67.50;13.80;100776.00;;;;5068440;28;20233;-78
2023/12/26 06:45:34;;;;;;;5.63;0.90;;;12.40;67.50;13.80;100776.00;;;;5068868;28;20282;-77
2023/12/26 06:48:01;;;;;;;3.88;0.70;;;12.40;67.50;13.80;100779.00;;;;5069247;28;20669;-78
2023/12/26 06:50:28;;;;;;;2.95;0.50;;;12.40;67.50;13.80;100786.00;;;;5085228;28;20198;-78
2023/12/26 06:52:55;;;;;;;3.85;0.88;;;12.40;67.50;13.80;100782.00;;;;5076363;28;20224;-78
2023/12/26 06:55:22;;;;;;;5.47;0.82;;;12.30;67.20;13.70;100786.00;;;;5085942;28;20656;-78
2023/12/26 06:57:52;;;;;;;4.28;0.60;;;12.30;67.40;13.70;100790.00;;;;5087021;28;20202;-78
2023/12/26 07:00:22;;;;;;;6.43;0.88;;;12.30;67.30;13.70;100783.00;;;;5088463;28;20205;-78
2023/12/26 07:02:49;;;;;;;12.80;1.77;;;12.30;67.30;13.70;100794.00;;;;5068045;28;20210;-78
2023/12/26 07:05:16;;;;;;;2.80;0.68;;;12.30;67.30;13.70;100805.00;;;;5068257;28;20218;-78
2023/12/26 07:07:43;;;;;;;1.70;0.40;;;12.30;67.20;13.60;100808.00;;;;5067915;28;20202;-78
2023/12/26 07:10:10;;;;;;;5.78;1.00;;;12.20;67.20;13.60;100805.00;;;;5087961;28;20206;-78
2023/12/26 07:12:37;;;;;;;5.57;1.15;;;12.20;67.20;13.60;100814.00;;;;5074471;28;20229;-78
2023/12/26 07:15:06;;;;;;;4.07;1.15;;;12.20;67.20;13.60;100817.00;;;;5073602;28;20359;-78
2023/12/26 07:17:34;;;;;;;7.82;1.02;;;12.20;67.20;13.60;100815.00;;;;5075936;28;20689;-78
2023/12/26 07:20:01;;;;;;;3.13;0.50;;;12.20;67.90;13.60;100812.00;;;;5072111;28;20672;-78
2023/12/26 07:22:28;;;;;;;4.88;0.93;;;12.20;67.20;13.50;100819.00;;;;5084334;28;20202;-78
2023/12/26 07:24:55;;;;;;;2.95;0.40;;;12.20;67.20;13.50;100803.00;;;;5085682;28;20191;-78
2023/12/26 07:27:22;;;;;;;3.20;0.57;;;12.10;67.20;13.50;100815.00;;;;5076727;28;20198;-78
2023/12/26 07:29:49;;;;;;;5.15;0.77;;;12.10;67.20;13.50;100816.00;;;;5074263;28;20202;-78
2023/12/26 07:32:19;;;;;;;3.92;0.82;;;12.10;67.20;13.50;100817.00;;;;5074543;28;20601;-78
2023/12/26 07:34:48;;;;;;;4.15;0.85;;;12.10;67.20;13.50;100818.00;;;;5088738;28;20225;-78
2023/12/26 07:37:15;;;;;;;4.78;0.75;;;12.10;67.20;13.40;100826.00;;;;5072597;28;20203;-78
2023/12/26 07:39:42;;;;;;;4.22;1.17;;;12.00;67.20;13.40;100828.00;;;;5067167;28;20565;-78
2023/12/26 07:42:09;;;;;;;3.80;0.85;;;12.00;67.20;13.40;100831.00;;;;5067992;28;20227;-78
2023/12/26 07:44:35;;;;;;;3.55;0.93;;;12.10;67.30;13.40;100843.00;;;;5077420;28;20210;-78
2023/12/26 07:47:03;;;;;;;6.03;0.70;;;12.00;67.20;13.40;100849.00;;;;5076753;28;20203;-78
2023/12/26 07:49:30;;;;;;;3.53;0.95;;;12.00;67.30;13.40;100857.00;;;;5080231;28;20221;-78
2023/12/26 07:51:58;;;;;;;4.13;1.05;;;12.00;67.30;13.40;100859.00;;;;5084564;28;20233;-78
2023/12/26 07:54:25;;;;;;;2.25;0.63;;;12.00;67.40;13.40;100858.00;;;;5087218;28;20195;-79
2023/12/26 07:56:52;;;;;;;7.70;1.35;;;12.00;67.30;13.40;100860.00;;;;5075229;28;20210;-78
2023/12/26 07:59:19;;;;;;;2.75;0.70;;;12.00;67.20;13.40;100869.00;;;;5074649;28;20205;-78
2023/12/26 08:01:45;;;;;;;5.40;1.15;;;12.00;67.20;13.40;100881.00;;;;5081199;28;20206;-78
2023/12/26 08:04:12;;;;;;;3.08;0.60;;;12.00;67.30;13.40;100886.00;;;;5070377;28;20208;-78
2023/12/26 08:06:39;;;;;;;2.35;0.85;;;12.00;67.20;13.40;100889.00;;;;5069509;28;20205;-78
2023/12/26 08:09:08;;;;;;;5.10;0.90;;;12.00;67.20;13.40;100883.00;;;;5070635;28;20210;-78
2023/12/26 08:11:36;;;;;;;4.15;1.13;;;12.00;67.20;13.50;100889.00;;;;5070006;28;20199;-78
2023/12/26 08:14:03;;;;;;;7.22;0.90;;;12.00;67.20;13.50;100896.00;;;;5084589;28;20726;-78
2023/12/26 08:16:30;;;;;;;2.58;0.55;;;12.00;67.10;13.50;100904.00;;;;5086182;28;20199;-78
2023/12/26 08:18:58;;;;;;;3.20;0.60;;;12.00;67.00;13.50;100899.00;;;;5070416;28;20234;-78
2023/12/26 08:21:25;;;;;;;4.03;0.90;;;12.00;67.10;13.50;100913.00;;;;5070581;28;20282;-78
2023/12/26 08:23:52;;;;;;;5.93;0.70;;;12.00;67.10;13.50;100928.00;;;;5073397;28;20722;-78
2023/12/26 08:26:21;;;;;;;2.65;0.90;;;12.10;67.10;13.50;100915.00;;;;5090568;28;20213;-78
2023/12/26 08:28:49;;;;;;;2.95;0.68;;;12.00;67.00;13.50;100914.00;;;;5090821;28;20195;-78
2023/12/26 08:31:17;;;;;;;3.58;0.70;;;12.00;67.10;13.50;100923.00;;;;5086211;28;20226;-77
2023/12/26 08:33:43;;;;;;;4.72;0.60;;;12.10;67.20;13.50;100930.00;;;;5082462;28;20312;-78
2023/12/26 08:36:10;;;;;;;8.48;1.05;;;12.10;67.20;13.50;100932.00;;;;5078264;28;20199;-78
2023/12/26 08:38:39;;;;;;;4.07;0.50;;;12.10;67.30;13.50;100942.00;;;;5074859;28;20202;-78
2023/12/26 08:41:09;;;;;;;1.30;0.60;;;12.10;67.30;13.50;100947.00;;;;5082175;28;20195;-78
2023/12/26 08:43:38;;;;;;;4.93;1.00;;;12.10;67.30;13.50;100959.00;;;;5075737;28;20190;-78
2023/12/26 08:46:05;;;;;;;4.85;1.55;;;12.10;67.40;13.60;100956.00;;;;5071403;28;20199;-78
2023/12/26 08:48:32;;;;;;;2.22;0.68;;;12.10;67.40;13.60;100967.00;;;;5078164;28;20198;-78
2023/12/26 08:50:59;;;;;;;3.80;0.60;;;12.20;67.50;13.60;100982.00;;;;5084421;28;20202;-78
2023/12/26 08:53:26;;;;;;;2.42;0.68;;;12.20;67.50;13.60;100980.00;;;;5074842;28;20223;-78
2023/12/26 08:55:53;;;;;;;4.25;0.85;;;12.20;67.50;13.70;100981.00;;;;5074968;28;20217;-77
2023/12/26 08:58:20;;;;;;;8.00;1.20;;;12.20;67.50;13.70;100985.00;;;;5075962;28;20198;-77
2023/12/26 09:00:48;;;;;;;5.47;1.73;;;12.20;67.50;13.70;100988.00;;;;5069863;28;20195;-78
2023/12/26 09:03:15;;;;;;;2.97;0.55;;;12.20;67.60;13.70;100993.00;;;;5069630;28;20655;-78
2023/12/26 09:05:42;;;;;;;4.93;0.85;;;12.20;67.50;13.70;101009.00;;;;5087464;28;20218;-78
2023/12/26 09:08:09;;;;;;;5.43;0.90;;;12.30;67.50;13.70;101017.00;;;;5089431;28;20668;-78
2023/12/26 09:10:36;;;;;;;2.53;0.50;;;12.30;67.40;13.70;101021.00;;;;5090797;28;20198;-78
2023/12/26 09:13:03;;;;;;;5.25;0.90;;;12.30;67.40;13.70;101023.00;;;;5089977;28;20535;-77
2023/12/26 09:15:30;;;;;;;5.43;1.10;;;12.30;67.40;13.80;101021.00;;;;5082827;28;20559;-77
2023/12/26 09:17:59;;;;;;;3.25;0.90;;;12.30;67.30;13.80;101028.00;;;;5086752;28;20213;-77
2023/12/26 09:20:25;;;;;;;3.75;0.75;;;12.30;67.30;13.80;101032.00;;;;5069687;28;20202;-77
2023/12/26 09:22:52;;;;;;;5.32;1.50;;;12.30;67.20;13.80;101038.00;;;;5070441;28;20675;-77
2023/12/26 09:25:19;;;;;;;3.80;1.00;;;12.30;67.20;13.80;101046.00;;;;5069921;28;20213;-77
2023/12/26 09:27:46;;;;;;;7.40;1.42;;;12.30;67.20;13.80;101048.00;;;;5072687;28;20194;-78
2023/12/26 09:30:14;;;;;;;4.10;0.75;;;12.30;67.30;13.80;101052.00;;;;5073636;28;20195;-78
2023/12/26 09:32:41;;;;;;;3.33;1.00;;;12.40;67.30;13.90;101064.00;;;;5069510;28;20642;-77
2023/12/26 09:35:10;;;;;;;4.03;0.82;;;12.40;67.30;13.90;101054.00;;;;5071149;28;20194;-78
2023/12/26 09:37:38;;;;;;;6.28;0.90;;;12.40;67.10;13.90;101066.00;;;;5081722;28;20217;-78
2023/12/26 09:40:07;;;;;;;2.95;0.77;;;12.40;67.30;13.90;101070.00;;;;5068498;28;20202;-78
2023/12/26 09:42:34;;;;;;;11.10;1.75;;;12.40;67.30;13.90;101064.00;;;;5069295;28;20226;-77
2023/12/26 09:45:03;;;;;;;5.90;1.25;;;12.50;67.10;13.90;101068.00;;;;5071686;28;20199;-78
2023/12/26 09:47:32;;;;;;;7.75;1.23;;;12.50;67.30;14.00;101075.00;;;;5069397;28;20207;-77
2023/12/26 09:49:59;;;;;;;5.97;0.93;;;12.60;67.30;14.00;101079.00;;;;5068937;28;20233;-78
2023/12/26 09:52:31;;;;;;;6.63;1.27;;;12.50;67.10;14.00;101084.00;;;;5074468;28;20607;-78
2023/12/26 09:54:59;;;;;;;7.65;0.80;;;12.60;67.10;14.10;101079.00;;;;5074637;28;20644;-77
2023/12/26 09:57:26;;;;;;;4.95;0.90;;;12.60;67.20;14.10;101094.00;;;;5076006;28;20194;-78
2023/12/26 09:59:55;;;;;;;2.53;0.60;;;12.70;67.20;14.10;101087.00;;;;5081820;28;20199;-78
2023/12/26 10:02:22;;;;;;;9.73;1.23;;;12.70;67.20;14.20;101111.00;;;;5079420;28;20695;-78
2023/12/26 10:04:50;;;;;;;5.63;0.90;;;12.70;67.00;14.20;101102.00;;;;5082163;28;20223;-78
2023/12/26 10:07:18;;;;;;;4.28;1.13;;;12.70;66.80;14.20;101114.00;;;;5072267;28;20282;-78
2023/12/26 10:09:48;;;;;;;2.90;0.80;;;12.80;67.00;14.20;101111.00;;;;5091145;28;20202;-78
2023/12/26 10:12:15;;;;;;;7.32;1.58;;;12.80;66.80;14.30;101121.00;;;;5073376;28;20224;-77
2023/12/26 10:14:41;;;;;;;6.28;1.00;;;12.80;66.80;14.30;101121.00;;;;5076254;28;20197;-78
2023/12/26 10:17:10;;;;;;;7.63;1.23;;;12.90;66.80;14.30;101128.00;;;;5076294;28;20206;-78
2023/12/26 10:19:38;;;;;;;8.52;1.10;;;12.90;66.70;14.30;101135.00;;;;5084676;28;20191;-79
2023/12/26 10:22:06;;;;;;;9.98;0.88;;;12.90;66.80;14.40;101132.00;;;;5079173;28;20206;-77
2023/12/26 10:24:33;;;;;;;5.82;1.05;;;13.00;66.60;14.40;101129.00;;;;5075111;28;20293;-77
2023/12/26 10:27:02;;;;;;;6.47;1.13;;;13.00;66.70;14.40;101143.00;;;;5074575;28;20738;-77
2023/12/26 10:29:30;;;;;;;5.05;1.20;;;13.00;66.60;14.40;101147.00;;;;5067548;28;20198;-76
2023/12/26 10:32:02;;;;;;;2.90;0.60;;;13.10;66.70;14.40;101138.00;;;;5068076;28;20263;-77
2023/12/26 10:34:31;;;;;;;8.00;2.28;;;13.10;66.40;14.50;101144.00;;;;5067829;28;20222;-76
2023/12/26 10:36:59;;;;;;;4.30;0.82;;;13.10;66.60;14.60;101149.00;;;;5067700;28;20284;-77
2023/12/26 10:39:29;;;;;;;9.32;1.60;;;13.10;66.50;14.60;101141.00;;;;5077857;28;20202;-77
2023/12/26 10:41:58;;;;;;;6.63;0.93;;;13.20;66.40;14.60;101150.00;;;;5075032;28;20696;-77
2023/12/26 10:44:29;;;;;;;3.15;1.02;;;13.20;66.50;14.60;101139.00;;;;5068210;28;20202;-77
2023/12/26 10:46:59;;;;;;;3.45;1.05;;;13.20;66.40;14.70;101148.00;;;;5066561;28;20293;-77
2023/12/26 10:49:28;;;;;;;6.25;1.02;;;13.30;66.40;14.70;101158.00;;;;5067996;28;20226;-77